createdAt,value
2022-12-14T00:00:03.694Z,100581.88
2022-12-14T00:02:42.193Z,100589.44
2022-12-14T00:05:12.728Z,100583.03
2022-12-14T00:07:42.693Z,100590.75
2022-12-14T00:10:12.464Z,100595.31
2022-12-14T00:12:43.106Z,100581.38
2022-12-14T00:15:13.573Z,100589.25
2022-12-14T00:17:44.045Z,100594.22
2022-12-14T00:20:14.055Z,100589.06
2022-12-14T00:22:44.807Z,100592.56
2022-12-14T00:25:15.153Z,100599.22
2022-12-14T00:27:47.326Z,100605.19
2022-12-14T00:30:23.229Z,100603.97
2022-12-14T00:32:53.654Z,100597.78
2022-12-14T00:35:24.818Z,100600.75
2022-12-14T00:37:55.607Z,100607.41
2022-12-14T00:40:25.453Z,100605.69
2022-12-14T00:42:56.099Z,100604.28
2022-12-14T00:45:26.227Z,100602.31
2022-12-14T00:47:57.632Z,100601.56
2022-12-14T00:50:27.819Z,100594.22
2022-12-14T00:52:58.286Z,100591.78
2022-12-14T00:55:28.490Z,100605.81
2022-12-14T00:57:58.960Z,100591.31
2022-12-14T01:00:30.859Z,100610.94
2022-12-14T01:03:01.559Z,100614.38
2022-12-14T01:05:32.102Z,100613.16
2022-12-14T01:08:06.497Z,100627.16
2022-12-14T01:10:39.649Z,100615.34
2022-12-14T01:13:12.119Z,100630.56
2022-12-14T01:15:42.224Z,100595.22
2022-12-14T01:18:12.751Z,100624.94
2022-12-14T01:20:42.808Z,100624.91
2022-12-14T01:23:13.257Z,100621.25
2022-12-14T01:25:43.767Z,100624.69
2022-12-14T01:28:21.253Z,100621.53
2022-12-14T01:30:51.386Z,100629.63
2022-12-14T01:33:21.846Z,100638.19
2022-12-14T01:35:51.852Z,100646.28
2022-12-14T01:38:22.262Z,100641.13
2022-12-14T01:40:59.355Z,100656.13
2022-12-14T01:43:50.589Z,100649.22
2022-12-14T01:46:41.230Z,100657.09
2022-12-14T01:49:26.061Z,100658.56
2022-12-14T01:52:20.018Z,100646.06
2022-12-14T01:55:10.152Z,100647.50
2022-12-14T01:57:50.100Z,100648.50
2022-12-14T02:00:20.650Z,100663.00
2022-12-14T02:02:55.955Z,100652.41
2022-12-14T02:05:27.461Z,100657.06
2022-12-14T02:07:58.084Z,100624.69
2022-12-14T02:10:30.808Z,100654.63
2022-12-14T02:13:19.795Z,100658.31
2022-12-14T02:15:50.287Z,100656.13
2022-12-14T02:18:23.647Z,100661.22
2022-12-14T02:21:31.056Z,100652.41
2022-12-14T02:24:25.058Z,100643.81
2022-12-14T02:27:10.605Z,100653.59
2022-12-14T02:30:07.756Z,100649.13
2022-12-14T02:33:02.937Z,100645.03
2022-12-14T02:36:14.916Z,100649.69
2022-12-14T02:39:29.561Z,100663.19
2022-12-14T02:42:14.761Z,100654.38
2022-12-14T02:44:56.777Z,100651.34
2022-12-14T02:47:40.567Z,100650.13
2022-12-14T02:50:13.839Z,100647.50
2022-12-14T02:53:19.296Z,100647.91
2022-12-14T02:55:53.714Z,100640.44
2022-12-14T02:58:40.468Z,100646.34
2022-12-14T03:01:15.359Z,100626.19
2022-12-14T03:03:45.784Z,100651.22
2022-12-14T03:06:28.680Z,100650.53
2022-12-14T03:09:13.765Z,100642.47
2022-12-14T03:12:05.943Z,100643.69
2022-12-14T03:14:44.170Z,100643.59
2022-12-14T03:17:25.357Z,100645.66
2022-12-14T03:19:57.922Z,100641.25
2022-12-14T03:22:48.766Z,100637.78
2022-12-14T03:25:26.638Z,100638.72
2022-12-14T03:28:27.399Z,100639.22
2022-12-14T03:31:07.174Z,100640.44
2022-12-14T03:33:40.189Z,100618.38
2022-12-14T03:36:16.451Z,100638.75
2022-12-14T03:38:51.652Z,100642.25
2022-12-14T03:41:44.078Z,100642.72
2022-12-14T03:44:49.029Z,100645.44
2022-12-14T03:47:53.156Z,100637.91
2022-12-14T03:50:36.124Z,100641.84
2022-12-14T03:53:09.006Z,100586.56
2022-12-14T03:55:48.877Z,100640.81
2022-12-14T03:58:40.256Z,100646.63
2022-12-14T04:01:13.473Z,100653.25
2022-12-14T04:04:06.080Z,100649.41
2022-12-14T04:06:59.205Z,100655.72
2022-12-14T04:09:32.045Z,100651.63
2022-12-14T04:12:23.200Z,100651.06
2022-12-14T04:15:35.159Z,100647.81
2022-12-14T04:18:28.154Z,100639.19
2022-12-14T04:21:05.097Z,100650.38
2022-12-14T04:23:59.872Z,100644.56
2022-12-14T04:26:38.130Z,100620.41
2022-12-14T04:29:36.143Z,100649.66
2022-12-14T04:32:17.164Z,100640.84
2022-12-14T04:34:59.525Z,100630.38
2022-12-14T04:37:31.322Z,100645.19
2022-12-14T04:40:12.961Z,100646.41
2022-12-14T04:42:58.487Z,100646.09
2022-12-14T04:45:41.722Z,100642.63
2022-12-14T04:48:27.311Z,100641.22
2022-12-14T04:51:16.133Z,100642.59
2022-12-14T04:53:53.416Z,100645.78
2022-12-14T04:56:37.906Z,100645.13
2022-12-14T04:59:08.529Z,100644.28
2022-12-14T05:01:56.862Z,100656.38
2022-12-14T05:04:41.541Z,100663.72
2022-12-14T05:07:20.649Z,100670.94
2022-12-14T05:10:06.781Z,100669.91
2022-12-14T05:12:58.931Z,100667.28
2022-12-14T05:15:45.608Z,100664.06
2022-12-14T05:18:16.530Z,100673.31
2022-12-14T05:20:47.351Z,100665.69
2022-12-14T05:23:18.580Z,100660.81
2022-12-14T05:25:49.054Z,100660.06
2022-12-14T05:28:19.690Z,100675.53
2022-12-14T05:30:49.548Z,100659.41
2022-12-14T05:33:25.148Z,100674.63
2022-12-14T05:35:55.348Z,100664.53
2022-12-14T05:38:25.690Z,100671.66
2022-12-14T05:40:55.495Z,100668.16
2022-12-14T05:43:26.425Z,100666.56
2022-12-14T05:46:04.101Z,100668.06
2022-12-14T05:48:36.411Z,100673.53
2022-12-14T05:51:11.541Z,100667.91
2022-12-14T05:53:45.270Z,100677.72
2022-12-14T05:56:15.092Z,100668.69
2022-12-14T05:58:45.737Z,100669.91
2022-12-14T06:01:19.053Z,100670.66
2022-12-14T06:03:53.036Z,100667.09
2022-12-14T06:06:23.143Z,100664.09
2022-12-14T06:08:53.984Z,100669.25
2022-12-14T06:11:25.472Z,100667.25
2022-12-14T06:13:56.094Z,100664.25
2022-12-14T06:16:27.963Z,100667.38
2022-12-14T06:19:01.407Z,100661.13
2022-12-14T06:21:34.172Z,100661.97
2022-12-14T06:24:05.161Z,100663.59
2022-12-14T06:26:42.045Z,100658.88
2022-12-14T06:29:21.341Z,100664.72
2022-12-14T06:31:51.409Z,100673.53
2022-12-14T06:34:26.497Z,100667.63
2022-12-14T06:36:58.178Z,100646.53
2022-12-14T06:39:28.793Z,100676.91
2022-12-14T06:41:58.853Z,100669.75
2022-12-14T06:44:29.512Z,100668.31
2022-12-14T06:46:59.488Z,100674.81
2022-12-14T06:49:30.284Z,100678.53
2022-12-14T06:52:00.357Z,100680.09
2022-12-14T06:54:31.360Z,100674.22
2022-12-14T06:57:01.326Z,100687.13
2022-12-14T06:59:31.494Z,100678.53
2022-12-14T07:02:01.533Z,100688.75
2022-12-14T07:04:32.354Z,100682.59
2022-12-14T07:07:02.433Z,100673.50
2022-12-14T07:09:32.873Z,100674.50
2022-12-14T07:12:02.876Z,100670.63
2022-12-14T07:14:33.448Z,100676.75
2022-12-14T07:17:03.499Z,100668.03
2022-12-14T07:19:33.947Z,100669.75
2022-12-14T07:22:08.288Z,100639.81
2022-12-14T07:24:38.881Z,100667.66
2022-12-14T07:27:09.478Z,100670.44
2022-12-14T07:29:39.909Z,100674.16
2022-12-14T07:32:09.936Z,100680.47
2022-12-14T07:34:41.698Z,100682.84
2022-12-14T07:37:11.741Z,100668.59
2022-12-14T07:39:42.262Z,100687.66
2022-12-14T07:42:12.355Z,100676.53
2022-12-14T07:44:49.407Z,100680.78
2022-12-14T07:47:19.489Z,100677.91
2022-12-14T07:49:50.014Z,100678.94
2022-12-14T07:52:20.853Z,100688.56
2022-12-14T07:54:51.279Z,100690.44
2022-12-14T07:57:21.329Z,100698.97
2022-12-14T07:59:57.134Z,100698.78
2022-12-14T08:02:27.764Z,100691.44
2022-12-14T08:04:58.361Z,100698.50
2022-12-14T08:07:32.503Z,100697.84
2022-12-14T08:10:02.939Z,100698.78
2022-12-14T08:12:33.083Z,100701.56
2022-12-14T08:15:03.001Z,100695.16
2022-12-14T08:17:34.133Z,100696.72
2022-12-14T08:20:05.364Z,100694.50
2022-12-14T08:22:35.900Z,100693.03
2022-12-14T08:25:06.919Z,100697.13
2022-12-14T08:27:36.987Z,100698.94
2022-12-14T08:30:08.361Z,100704.53
2022-12-14T08:32:38.484Z,100705.34
2022-12-14T08:35:08.613Z,100707.66
2022-12-14T08:37:41.660Z,100701.31
2022-12-14T08:40:15.034Z,100693.84
2022-12-14T08:42:45.083Z,100691.00
2022-12-14T08:45:16.029Z,100692.09
2022-12-14T08:47:47.731Z,100695.94
2022-12-14T08:50:18.505Z,100698.28
2022-12-14T08:52:49.765Z,100694.66
2022-12-14T08:55:27.568Z,100697.03
2022-12-14T08:58:00.102Z,100691.47
2022-12-14T09:00:31.120Z,100683.56
2022-12-14T09:03:01.545Z,100681.84
2022-12-14T09:05:32.244Z,100678.03
2022-12-14T09:08:02.789Z,100686.47
2022-12-14T09:10:33.314Z,100675.50
2022-12-14T09:13:03.441Z,100696.84
2022-12-14T09:15:33.885Z,100695.88
2022-12-14T09:18:03.969Z,100698.09
2022-12-14T09:20:34.722Z,100711.56
2022-12-14T09:23:04.714Z,100706.00
2022-12-14T09:25:35.303Z,100710.47
2022-12-14T09:28:05.310Z,100708.59
2022-12-14T09:30:35.950Z,100723.03
2022-12-14T09:33:06.016Z,100724.78
2022-12-14T09:35:36.699Z,100733.00
2022-12-14T09:38:06.266Z,100731.63
2022-12-14T09:40:36.673Z,100726.75
2022-12-14T09:43:08.637Z,100734.59
2022-12-14T09:45:49.889Z,100717.34
2022-12-14T09:48:25.282Z,100744.00
2022-12-14T09:50:55.580Z,100743.47
2022-12-14T09:53:27.630Z,100747.09
2022-12-14T09:55:59.358Z,100740.66
2022-12-14T09:58:34.350Z,100742.75
2022-12-14T10:01:34.284Z,100747.69
2022-12-14T10:04:21.595Z,100752.38
2022-12-14T10:07:12.388Z,100752.56
2022-12-14T10:10:12.563Z,100753.97
2022-12-14T10:13:04.783Z,100750.19
2022-12-14T10:15:52.067Z,100746.88
2022-12-14T10:19:01.941Z,100743.19
2022-12-14T10:22:08.059Z,100751.47
2022-12-14T10:24:52.539Z,100748.19
2022-12-14T10:27:25.786Z,100740.44
2022-12-14T10:30:10.463Z,100745.16
2022-12-14T10:32:42.459Z,100743.47
2022-12-14T10:35:44.373Z,100749.56
2022-12-14T10:38:53.243Z,100745.38
2022-12-14T10:41:40.630Z,100745.03
2022-12-14T10:44:19.639Z,100741.44
2022-12-14T10:47:16.477Z,100750.44
2022-12-14T10:49:53.661Z,100747.50
2022-12-14T10:52:30.243Z,100750.19
2022-12-14T10:55:05.713Z,100750.16
2022-12-14T10:57:35.748Z,100749.03
2022-12-14T11:00:22.584Z,100752.78
2022-12-14T11:02:59.481Z,100752.00
2022-12-14T11:05:37.729Z,100757.19
2022-12-14T11:08:09.112Z,100753.16
2022-12-14T11:10:42.575Z,100756.66
2022-12-14T11:13:17.727Z,100748.41
2022-12-14T11:15:51.588Z,100751.53
2022-12-14T11:18:21.634Z,100750.09
2022-12-14T11:21:00.526Z,100750.03
2022-12-14T11:23:37.578Z,100744.44
2022-12-14T11:26:14.708Z,100739.47
2022-12-14T11:28:45.163Z,100744.06
2022-12-14T11:31:31.027Z,100739.13
2022-12-14T11:34:03.827Z,100735.81
2022-12-14T11:36:39.765Z,100735.47
2022-12-14T11:39:16.153Z,100737.06
2022-12-14T11:42:02.881Z,100723.94
2022-12-14T11:44:39.663Z,100732.94
2022-12-14T11:47:25.035Z,100724.91
2022-12-14T11:49:58.929Z,100727.72
2022-12-14T11:52:44.142Z,100728.94
2022-12-14T11:55:27.306Z,100729.22
2022-12-14T11:58:00.884Z,100726.75
2022-12-14T12:00:49.174Z,100730.59
2022-12-14T12:03:25.464Z,100726.53
2022-12-14T12:06:01.522Z,100734.84
2022-12-14T12:08:34.991Z,100726.09
2022-12-14T12:11:17.310Z,100733.75
2022-12-14T12:13:52.000Z,100727.59
2022-12-14T12:16:26.872Z,100725.72
2022-12-14T12:19:20.603Z,100720.31
2022-12-14T12:21:51.474Z,100716.91
2022-12-14T12:24:21.532Z,100721.34
2022-12-14T12:27:01.582Z,100723.19
2022-12-14T12:29:35.724Z,100714.44
2022-12-14T12:32:21.739Z,100722.38
2022-12-14T12:35:11.340Z,100721.44
2022-12-14T12:38:00.256Z,100709.34
2022-12-14T12:40:53.995Z,100710.09
2022-12-14T12:43:43.741Z,100713.00
2022-12-14T12:46:40.597Z,100723.22
2022-12-14T12:49:23.905Z,100716.44
2022-12-14T12:52:02.833Z,100724.16
2022-12-14T12:54:45.133Z,100721.34
2022-12-14T12:57:16.625Z,100727.28
2022-12-14T12:59:53.378Z,100721.47
2022-12-14T13:02:45.051Z,100726.59
2022-12-14T13:08:38.633Z,100723.25
2022-12-14T13:11:28.160Z,100711.19
2022-12-14T13:14:16.769Z,100716.72
2022-12-14T13:16:47.899Z,100704.69
2022-12-14T13:19:50.609Z,100696.41
2022-12-14T13:22:40.438Z,100710.22
2022-12-14T13:25:18.162Z,100705.66
2022-12-14T13:27:50.922Z,100711.44
2022-12-14T13:30:47.033Z,100707.38
2022-12-14T13:33:39.019Z,100709.72
2022-12-14T13:36:31.866Z,100695.19
2022-12-14T13:39:30.577Z,100690.00
2022-12-14T13:42:25.290Z,100680.56
2022-12-14T13:45:02.565Z,100679.53
2022-12-14T13:47:46.045Z,100686.56
2022-12-14T13:50:39.981Z,100693.66
2022-12-14T13:53:19.989Z,100684.06
2022-12-14T13:55:53.805Z,100678.56
2022-12-14T13:58:47.194Z,100667.09
2022-12-14T14:01:53.375Z,100669.72
2022-12-14T14:04:26.920Z,100664.97
2022-12-14T14:07:16.716Z,100665.19
2022-12-14T14:10:07.851Z,100655.56
2022-12-14T14:12:44.439Z,100659.34
2022-12-14T14:15:38.352Z,100650.88
2022-12-14T14:18:23.115Z,100639.16
2022-12-14T14:21:14.553Z,100636.97
2022-12-14T14:24:00.632Z,100635.75
2022-12-14T14:26:37.272Z,100634.06
2022-12-14T14:29:24.229Z,100639.22
2022-12-14T14:32:00.414Z,100638.78
2022-12-14T14:34:45.123Z,100638.47
2022-12-14T14:37:22.611Z,100637.25
2022-12-14T14:40:21.995Z,100626.88
2022-12-14T14:43:05.197Z,100620.22
2022-12-14T14:45:49.106Z,100613.81
2022-12-14T14:48:40.198Z,100606.63
2022-12-14T14:51:18.837Z,100606.25
2022-12-14T14:53:50.500Z,100601.16
2022-12-14T14:56:36.274Z,100611.56
2022-12-14T14:59:50.801Z,100595.91
2022-12-14T15:02:32.855Z,100598.03
2022-12-14T15:05:33.020Z,100598.38
2022-12-14T15:07:59.704Z,100594.16
2022-12-14T15:10:44.423Z,100587.53
2022-12-14T15:13:29.742Z,100585.66
2022-12-14T15:16:00.690Z,100583.00
2022-12-14T15:18:32.698Z,100577.78
2022-12-14T15:21:09.050Z,100552.47
2022-12-14T15:23:43.892Z,100550.13
2022-12-14T15:26:33.472Z,100563.97
2022-12-14T15:29:05.673Z,100567.34
2022-12-14T15:31:41.283Z,100564.09
2022-12-14T15:34:19.686Z,100556.03
2022-12-14T15:36:50.947Z,100551.16
2022-12-14T15:39:47.247Z,100557.88
2022-12-14T15:42:19.187Z,100554.56
2022-12-14T15:45:00.302Z,100551.69
2022-12-14T15:47:32.355Z,100545.69
2022-12-14T15:50:24.591Z,100544.66
2022-12-14T15:53:05.917Z,100551.72
2022-12-14T15:55:40.415Z,100548.66
2022-12-14T15:58:29.813Z,100554.81
2022-12-14T16:01:32.112Z,100527.78
2022-12-14T16:04:06.242Z,100543.47
2022-12-14T16:06:42.245Z,100524.47
2022-12-14T16:09:29.738Z,100527.06
2022-12-14T16:12:24.345Z,100512.94
2022-12-14T16:14:58.853Z,100512.34
2022-12-14T16:17:38.730Z,100508.00
2022-12-14T16:20:19.734Z,100511.25
2022-12-14T16:23:07.077Z,100508.63
2022-12-14T16:25:38.667Z,100497.00
2022-12-14T16:28:33.853Z,100497.72
2022-12-14T16:31:19.305Z,100491.59
2022-12-14T16:34:07.046Z,100480.34
2022-12-14T16:36:38.178Z,100483.59
2022-12-14T16:39:18.358Z,100465.91
2022-12-14T16:42:01.785Z,100475.91
2022-12-14T16:44:32.638Z,100469.66
2022-12-14T16:47:03.423Z,100461.69
2022-12-14T16:49:36.173Z,100452.41
2022-12-14T16:52:11.969Z,100451.72
2022-12-14T16:54:42.030Z,100460.66
2022-12-14T16:57:21.073Z,100442.44
2022-12-14T17:00:03.649Z,100442.16
2022-12-14T17:02:39.689Z,100436.41
2022-12-14T17:05:20.138Z,100424.78
2022-12-14T17:07:50.474Z,100421.88
2022-12-14T17:10:26.377Z,100421.63
2022-12-14T17:13:01.044Z,100417.06
2022-12-14T17:15:34.626Z,100427.47
2022-12-14T17:18:09.609Z,100425.94
2022-12-14T17:20:40.494Z,100428.50
2022-12-14T17:23:14.549Z,100423.16
2022-12-14T17:25:47.843Z,100421.16
2022-12-14T17:28:24.631Z,100415.78
2022-12-14T17:30:58.494Z,100409.34
2022-12-14T17:33:30.755Z,100417.13
2022-12-14T17:36:01.625Z,100427.38
2022-12-14T17:38:32.832Z,100422.78
2022-12-14T17:41:03.409Z,100413.97
2022-12-14T17:43:34.291Z,100421.88
2022-12-14T17:46:07.642Z,100413.75
2022-12-14T17:48:38.418Z,100415.31
2022-12-14T17:51:09.323Z,100407.94
2022-12-14T17:53:39.600Z,100408.03
2022-12-14T17:56:10.084Z,100413.75
2022-12-14T17:58:40.078Z,100407.53
2022-12-14T18:01:11.498Z,100408.59
2022-12-14T18:03:41.719Z,100409.81
2022-12-14T18:06:17.257Z,100404.91
2022-12-14T18:08:48.690Z,100383.81
2022-12-14T18:11:27.922Z,100409.69
2022-12-14T18:13:57.944Z,100398.28
2022-12-14T18:16:29.386Z,100387.72
2022-12-14T18:18:59.805Z,100399.63
2022-12-14T18:21:31.474Z,100395.44
2022-12-14T18:24:01.889Z,100380.06
2022-12-14T18:26:32.937Z,100373.28
2022-12-14T18:29:03.866Z,100373.56
2022-12-14T18:31:38.082Z,100371.59
2022-12-14T18:34:17.087Z,100366.53
2022-12-14T18:36:57.398Z,100347.09
2022-12-14T18:39:28.831Z,100376.94
2022-12-14T18:42:04.777Z,100377.97
2022-12-14T18:44:36.488Z,100380.41
2022-12-14T18:47:40.022Z,100367.31
2022-12-14T18:50:00.006Z,100374.06
2022-12-14T18:52:31.362Z,100380.28
2022-12-14T18:55:04.262Z,100390.72
2022-12-14T18:57:39.497Z,100390.78
2022-12-14T19:00:29.218Z,100387.72
2022-12-14T19:03:02.910Z,100377.47
2022-12-14T19:05:34.839Z,100374.22
2022-12-14T19:08:06.667Z,100380.81
2022-12-14T19:10:38.027Z,100372.53
2022-12-14T19:13:11.871Z,100376.56
2022-12-14T19:15:43.552Z,100370.09
2022-12-14T19:18:16.156Z,100371.38
2022-12-14T19:20:49.615Z,100370.53
2022-12-14T19:23:23.217Z,100335.09
2022-12-14T19:25:53.406Z,100364.56
2022-12-14T19:28:32.432Z,100355.59
2022-12-14T19:31:05.430Z,100356.47
2022-12-14T19:33:36.534Z,100343.78
2022-12-14T19:36:09.723Z,100354.59
2022-12-14T19:38:41.841Z,100348.78
2022-12-14T19:41:16.568Z,100352.16
2022-12-14T19:43:47.548Z,100355.91
2022-12-14T19:46:19.006Z,100356.06
2022-12-14T19:48:51.100Z,100372.53
2022-12-14T19:51:22.723Z,100359.22
2022-12-14T19:53:56.996Z,100363.25
2022-12-14T19:56:27.249Z,100356.06
2022-12-14T19:59:02.504Z,100365.88
2022-12-14T20:01:43.303Z,100352.88
2022-12-14T20:04:18.229Z,100357.34
2022-12-14T20:06:49.156Z,100349.09
2022-12-14T20:09:19.913Z,100352.41
2022-12-14T20:11:49.918Z,100349.66
2022-12-14T20:14:20.466Z,100350.41
2022-12-14T20:16:50.505Z,100361.38
2022-12-14T20:19:21.551Z,100358.78
2022-12-14T20:21:51.695Z,100361.25
2022-12-14T20:24:21.594Z,100368.97
2022-12-14T20:26:54.480Z,100375.09
2022-12-14T20:29:24.505Z,100368.69
2022-12-14T20:31:56.412Z,100368.16
2022-12-14T20:34:26.466Z,100379.59
2022-12-14T20:36:56.915Z,100370.81
2022-12-14T20:39:26.993Z,100371.47
2022-12-14T20:41:57.327Z,100372.13
2022-12-14T20:44:27.294Z,100376.63
2022-12-14T20:46:57.957Z,100371.97
2022-12-14T20:49:31.179Z,100363.75
2022-12-14T20:52:01.741Z,100370.91
2022-12-14T20:54:31.770Z,100366.81
2022-12-14T20:57:02.284Z,100359.25
2022-12-14T20:59:32.333Z,100371.47
2022-12-14T21:02:03.691Z,100363.47
2022-12-14T21:04:33.959Z,100368.25
2022-12-14T21:07:04.471Z,100351.16
2022-12-14T21:09:34.420Z,100379.84
2022-12-14T21:12:23.665Z,100378.34
2022-12-14T21:14:55.814Z,100378.25
2022-12-14T21:17:28.747Z,100387.88
2022-12-14T21:19:59.422Z,100378.00
2022-12-14T21:22:31.801Z,100366.94
2022-12-14T21:25:04.870Z,100376.78
2022-12-14T21:27:39.285Z,100380.09
2022-12-14T21:30:12.476Z,100393.78
2022-12-14T21:32:42.990Z,100386.78
2022-12-14T21:35:14.361Z,100392.84
2022-12-14T21:37:44.875Z,100404.19
2022-12-14T21:40:34.690Z,100396.19
2022-12-14T21:43:05.760Z,100409.47
2022-12-14T21:45:38.924Z,100410.09
2022-12-14T21:48:09.685Z,100411.38
2022-12-14T21:50:38.992Z,100417.03
2022-12-14T21:53:11.614Z,100412.06
2022-12-14T21:55:50.805Z,100413.38
2022-12-14T21:58:21.274Z,100410.28
2022-12-14T22:00:51.268Z,100414.13
2022-12-14T22:03:21.858Z,100421.34
2022-12-14T22:05:51.978Z,100416.63
2022-12-14T22:08:22.419Z,100421.19
2022-12-14T22:10:51.877Z,100415.22
2022-12-14T22:13:21.822Z,100429.22
2022-12-14T22:15:52.153Z,100418.25
2022-12-14T22:18:22.539Z,100428.97
2022-12-14T22:20:52.949Z,100428.50
2022-12-14T22:23:22.472Z,100419.41
2022-12-14T22:25:52.557Z,100428.19
2022-12-14T22:28:23.817Z,100419.13
2022-12-14T22:30:53.774Z,100418.50
2022-12-14T22:33:24.163Z,100406.03
2022-12-14T22:35:54.176Z,100409.16
2022-12-14T22:38:27.292Z,100418.38
2022-12-14T22:41:03.836Z,100413.03
2022-12-14T22:43:37.263Z,100419.34
2022-12-14T22:46:08.340Z,100384.84
2022-12-14T22:48:39.426Z,100398.66
2022-12-14T22:51:16.239Z,100424.53
2022-12-14T22:53:49.484Z,100419.31
2022-12-14T22:56:28.162Z,100427.06
2022-12-14T22:59:05.589Z,100420.59
2022-12-14T23:01:37.743Z,100419.44
2022-12-14T23:04:10.313Z,100427.25
2022-12-14T23:06:42.154Z,100428.09
2022-12-14T23:09:32.058Z,100426.66
2022-12-14T23:12:22.018Z,100432.19
2022-12-14T23:15:13.770Z,100434.16
2022-12-14T23:18:01.863Z,100443.31
2022-12-14T23:20:50.462Z,100434.03
2022-12-14T23:23:38.306Z,100443.59
2022-12-14T23:26:27.304Z,100448.59
2022-12-14T23:29:16.623Z,100447.84
2022-12-14T23:32:04.928Z,100450.72
2022-12-14T23:34:53.108Z,100454.13
2022-12-14T23:37:41.870Z,100461.56
2022-12-14T23:40:32.869Z,100461.41
2022-12-14T23:43:38.406Z,100464.78
2022-12-14T23:46:26.363Z,100467.75
2022-12-14T23:49:16.198Z,100459.47
2022-12-14T23:52:04.409Z,100455.63
2022-12-14T23:54:53.393Z,100450.22
2022-12-14T23:57:41.753Z,100450.25
